Accueil
METAR-TAF:

METAR-TAF

Aéroports :

Aéroport d'Ivujivik

Ivujivik, Québec, Canada

latitude: 62-25N, longitude: 077-57W, altitude: 42 m

Observation

Le bulletin a été fait il y a 8 heures et 3 minutes, à 19:00 UTC
Vent 13 kt de nord
Température -6°C
Humidité 73%
Pression 1015 hPa
Visibilité: 24.1 km
Ciel clair

METAR: CYIK 071900Z 01013KT 15SM SKC M06/M10 A2998 RMK SN CVR MEDIUM PACK LAST STFD OBS/NEXT 081200UTC SLP159

Heure: 23:03 (03:03 UTC)

Prévision

Le bulletin a été fait il y a 13 heures et 24 minutes, à 13:39 UTC
Prévision valable du 07 à 14 UTC au 07 à 21 UTC
Vent 7 kt de nord-ouest
Visibilité: 10 km
Ciel clair
Evoluant progressivement
du 07 à 14 UTC au 07 à 16 UTC
Vent 12 kt de nord/nord-est

TAF: CYIK 071339Z 0714/0721 32007KT P6SM SKC BECMG 0714/0716 02012KT RMK NXT FCST WILL BE ISSUED AT 081345Z

Observations et prévisions météorologiques de plus de 4000 aéroports (messages METAR et TAF).

Les stations disponibles sont représentées par des disques jaunes et rouges sur la carte.

Passer la souris dessus pour voir le nom de la station.

Cliquer dessus pour voir les observations et prévisions météorologiques.

Pour changer de carte: cliquez sur les boutons verts avec une croix noire pour zoomer, sur le bouton vert avec un tiret pour effectuer un zoom arrière, ou sur les flèches vertes pour les cartes adjacentes.


METAR-TAF: